createdAt,value
2023-05-19T00:01:57.913Z,102819.34
2023-05-19T00:04:28.978Z,102819.47
2023-05-19T00:06:59.538Z,102831.81
2023-05-19T00:09:28.390Z,102822.84
2023-05-19T00:11:57.951Z,102828.00
2023-05-19T00:14:26.609Z,102831.66
2023-05-19T00:17:02.109Z,102827.00
2023-05-19T00:19:32.507Z,102827.69
2023-05-19T00:22:00.831Z,102836.66
2023-05-19T00:24:29.413Z,102823.50
2023-05-19T00:26:57.638Z,102830.13
2023-05-19T00:29:25.825Z,102824.88
2023-05-19T00:31:54.161Z,102828.69
2023-05-19T00:34:22.442Z,102838.63
2023-05-19T00:36:52.104Z,102834.16
2023-05-19T00:39:20.380Z,102835.97
2023-05-19T00:41:48.814Z,102840.47
2023-05-19T00:44:17.152Z,102844.41
2023-05-19T00:46:45.433Z,102846.47
2023-05-19T00:49:13.569Z,102841.00
2023-05-19T00:51:42.451Z,102848.16
2023-05-19T00:54:12.343Z,102849.66
2023-05-19T00:56:40.920Z,102855.66
2023-05-19T00:59:09.541Z,102853.97
2023-05-19T01:01:38.193Z,102856.13
2023-05-19T01:04:10.091Z,102860.63
2023-05-19T01:06:39.241Z,102870.72
2023-05-19T01:09:07.753Z,102874.97
2023-05-19T01:11:37.379Z,102863.13
2023-05-19T01:14:06.200Z,102865.34
2023-05-19T01:16:42.103Z,102873.03
2023-05-19T01:19:25.744Z,102875.47
2023-05-19T01:22:29.003Z,102877.75
2023-05-19T01:25:33.148Z,102879.88
2023-05-19T01:28:40.961Z,102867.03
2023-05-19T01:31:12.137Z,102858.88
2023-05-19T01:33:42.456Z,102856.38
2023-05-19T01:36:13.650Z,102853.06
2023-05-19T01:38:43.214Z,102853.06
2023-05-19T01:41:12.759Z,102841.06
2023-05-19T01:43:42.126Z,102848.69
2023-05-19T01:46:12.232Z,102847.75
2023-05-19T01:48:40.816Z,102847.88
2023-05-19T01:51:09.324Z,102849.69
2023-05-19T01:53:37.751Z,102854.84
2023-05-19T01:56:07.765Z,102857.38
2023-05-19T01:58:43.116Z,102859.22
2023-05-19T02:01:21.330Z,102863.69
2023-05-19T02:04:05.952Z,102869.28
2023-05-19T02:06:43.807Z,102881.88
2023-05-19T02:09:17.028Z,102881.88
2023-05-19T02:11:51.661Z,102886.25
2023-05-19T02:14:26.303Z,102876.56
2023-05-19T02:16:58.742Z,102877.72
2023-05-19T02:19:28.577Z,102882.66
2023-05-19T02:21:57.637Z,102882.34
2023-05-19T02:24:26.152Z,102882.28
2023-05-19T02:26:55.178Z,102885.91
2023-05-19T02:29:23.788Z,102890.69
2023-05-19T02:31:52.035Z,102889.88
2023-05-19T02:34:22.258Z,102892.66
2023-05-19T02:36:50.743Z,102898.56
2023-05-19T02:39:19.476Z,102905.53
2023-05-19T02:41:47.706Z,102899.56
2023-05-19T02:44:16.138Z,102904.47
2023-05-19T02:46:44.492Z,102907.56
2023-05-19T02:49:12.817Z,102905.88
2023-05-19T02:51:42.410Z,102910.66
2023-05-19T02:54:10.745Z,102918.22
2023-05-19T02:56:39.083Z,102905.38
2023-05-19T02:59:07.429Z,102913.47
2023-05-19T03:01:37.888Z,102922.41
2023-05-19T03:04:06.775Z,102917.69
2023-05-19T03:06:35.183Z,102916.47
2023-05-19T03:09:05.021Z,102917.28
2023-05-19T03:11:33.336Z,102910.03
2023-05-19T03:14:01.720Z,102921.91
2023-05-19T03:16:29.995Z,102918.84
2023-05-19T03:18:58.299Z,102926.66
2023-05-19T03:21:26.586Z,102921.09
2023-05-19T03:23:55.691Z,102917.06
2023-05-19T03:26:25.523Z,102918.03
2023-05-19T03:28:54.402Z,102916.38
2023-05-19T03:31:22.687Z,102908.53
2023-05-19T03:33:50.945Z,102912.31
2023-05-19T03:36:19.203Z,102913.84
2023-05-19T03:38:47.392Z,102920.44
2023-05-19T03:41:15.918Z,102925.88
2023-05-19T03:43:45.588Z,102926.16
2023-05-19T03:46:13.828Z,102923.94
2023-05-19T03:48:42.622Z,102925.44
2023-05-19T03:51:10.953Z,102929.75
2023-05-19T03:53:39.166Z,102939.00
2023-05-19T03:56:08.163Z,102942.34
2023-05-19T03:58:37.088Z,102939.00
2023-05-19T04:01:06.781Z,102943.59
2023-05-19T04:03:35.086Z,102944.84
2023-05-19T04:06:03.249Z,102950.16
2023-05-19T04:08:31.498Z,102945.44
2023-05-19T04:10:59.966Z,102947.25
2023-05-19T04:13:28.658Z,102942.09
2023-05-19T04:15:57.004Z,102944.88
2023-05-19T04:18:28.821Z,102941.69
2023-05-19T04:20:57.450Z,102943.47
2023-05-19T04:23:25.766Z,102951.56
2023-05-19T04:25:54.606Z,102956.88
2023-05-19T04:28:24.004Z,102968.31
2023-05-19T04:30:52.392Z,102967.75
2023-05-19T04:33:21.567Z,102968.44
2023-05-19T04:35:51.846Z,102970.78
2023-05-19T04:38:20.337Z,102968.44
2023-05-19T04:40:50.456Z,102973.75
2023-05-19T04:43:19.396Z,102985.75
2023-05-19T04:45:50.321Z,102985.19
2023-05-19T04:48:19.180Z,102979.03
2023-05-19T04:50:48.936Z,102983.63
2023-05-19T04:53:19.003Z,102990.47
2023-05-19T04:55:47.224Z,102992.31
2023-05-19T04:58:17.156Z,102998.28
2023-05-19T05:00:45.573Z,103002.63
2023-05-19T05:03:14.693Z,102995.06
2023-05-19T05:05:43.129Z,102997.59
2023-05-19T05:08:11.846Z,102993.97
2023-05-19T05:10:41.475Z,102997.59
2023-05-19T05:13:11.732Z,102995.94
2023-05-19T05:15:40.744Z,103004.00
2023-05-19T05:18:09.777Z,103001.50
2023-05-19T05:20:38.918Z,102994.25
2023-05-19T05:23:09.769Z,102999.94
2023-05-19T05:25:39.496Z,102999.94
2023-05-19T05:28:09.222Z,103001.09
2023-05-19T05:30:37.717Z,103000.09
2023-05-19T05:33:06.519Z,102999.53
2023-05-19T05:35:35.044Z,102991.88
2023-05-19T05:38:04.061Z,102991.72
2023-05-19T05:40:32.337Z,103000.38
2023-05-19T05:43:00.764Z,102998.59
2023-05-19T05:45:30.543Z,102990.63
2023-05-19T05:47:59.584Z,102993.72
2023-05-19T05:50:28.678Z,102996.47
2023-05-19T05:52:58.897Z,102994.53
2023-05-19T05:55:27.953Z,102996.78
2023-05-19T05:57:57.126Z,102998.34
2023-05-19T06:00:28.145Z,102999.28
2023-05-19T06:02:59.294Z,102993.44
2023-05-19T06:05:27.820Z,103000.56
2023-05-19T06:07:56.402Z,103000.47
2023-05-19T06:10:24.927Z,102986.78
2023-05-19T06:12:53.316Z,102981.16
2023-05-19T06:15:23.551Z,102994.44
2023-05-19T06:17:51.831Z,102990.69
2023-05-19T06:20:21.713Z,102991.94
2023-05-19T06:22:49.967Z,102999.47
2023-05-19T06:25:18.321Z,103000.88
2023-05-19T06:27:46.601Z,103000.16
2023-05-19T06:30:15.454Z,103003.38
2023-05-19T06:32:43.818Z,102998.47
2023-05-19T06:35:12.035Z,102991.06
2023-05-19T06:37:41.642Z,102993.47
2023-05-19T06:40:10.929Z,102997.63
2023-05-19T06:42:39.245Z,102993.97
2023-05-19T06:45:09.084Z,102990.66
2023-05-19T06:47:37.254Z,102985.63
2023-05-19T06:50:06.207Z,102988.81
2023-05-19T06:52:34.465Z,102989.81
2023-05-19T06:55:04.150Z,102997.47
2023-05-19T06:57:32.331Z,102991.75
2023-05-19T07:00:00.558Z,102998.59
2023-05-19T07:02:28.979Z,103006.69
2023-05-19T07:04:57.583Z,103004.44
2023-05-19T07:07:26.853Z,103007.50
2023-05-19T07:09:55.151Z,103010.56
2023-05-19T07:12:26.727Z,103011.13
2023-05-19T07:14:54.924Z,103013.19
2023-05-19T07:17:23.136Z,103026.75
2023-05-19T07:19:51.407Z,103031.09
2023-05-19T07:22:19.648Z,103030.28
2023-05-19T07:24:48.593Z,103029.13
2023-05-19T07:27:16.774Z,103031.94
2023-05-19T07:29:46.464Z,103038.25
2023-05-19T07:32:14.688Z,103044.25
2023-05-19T07:34:42.954Z,103056.56
2023-05-19T07:37:11.226Z,103051.53
2023-05-19T07:39:39.543Z,103054.47
2023-05-19T07:42:07.866Z,103056.53
2023-05-19T07:44:35.985Z,103050.94
2023-05-19T07:47:05.819Z,103045.47
2023-05-19T07:49:34.095Z,103041.00
2023-05-19T07:52:02.471Z,103047.03
2023-05-19T07:54:30.742Z,103049.09
2023-05-19T07:56:59.090Z,103046.16
2023-05-19T07:59:27.408Z,103048.66
2023-05-19T08:01:56.048Z,103046.94
2023-05-19T08:04:25.753Z,103043.03
2023-05-19T08:06:55.188Z,103049.97
2023-05-19T08:09:23.321Z,103043.75
2023-05-19T08:11:51.584Z,103036.19
2023-05-19T08:14:22.434Z,103034.44
2023-05-19T08:16:51.031Z,103032.03
2023-05-19T08:19:19.523Z,103048.53
2023-05-19T08:21:49.754Z,103053.31
2023-05-19T08:24:17.967Z,103053.63
2023-05-19T08:26:46.140Z,103059.00
2023-05-19T08:29:14.435Z,103060.72
2023-05-19T08:31:42.685Z,103056.06
2023-05-19T08:34:10.948Z,103061.00
2023-05-19T08:36:39.272Z,103068.97
2023-05-19T08:39:09.159Z,103069.66
2023-05-19T08:41:37.651Z,103066.03
2023-05-19T08:44:06.433Z,103062.38
2023-05-19T08:46:35.166Z,103065.72
2023-05-19T08:49:09.778Z,103073.31
2023-05-19T08:51:43.922Z,103073.63
2023-05-19T08:54:18.200Z,103067.22
2023-05-19T08:56:46.632Z,103060.75
2023-05-19T08:59:15.995Z,103056.13
2023-05-19T09:01:46.546Z,103056.78
2023-05-19T09:04:15.443Z,103060.31
2023-05-19T09:06:45.366Z,103067.31
2023-05-19T09:09:15.689Z,103062.97
2023-05-19T09:11:47.341Z,103062.00
2023-05-19T09:14:15.634Z,103055.06
2023-05-19T09:16:44.626Z,103044.13
2023-05-19T09:19:16.725Z,103048.19
2023-05-19T09:21:45.954Z,103046.91
2023-05-19T09:24:15.969Z,103044.81
2023-05-19T09:26:44.543Z,103048.19
2023-05-19T09:29:14.044Z,103033.72
2023-05-19T09:31:50.643Z,103036.94
2023-05-19T09:34:19.320Z,103041.78
2023-05-19T09:36:50.965Z,103039.34
2023-05-19T09:39:22.118Z,103042.81
2023-05-19T09:41:54.062Z,103041.38
2023-05-19T09:44:29.149Z,103033.31
2023-05-19T09:46:58.376Z,103027.06
2023-05-19T09:49:29.686Z,103030.94
2023-05-19T09:51:58.196Z,103036.47
2023-05-19T09:54:29.713Z,103029.38
2023-05-19T09:57:00.144Z,103036.97
2023-05-19T09:59:32.955Z,103040.16
2023-05-19T10:02:03.429Z,103042.00
2023-05-19T10:04:32.590Z,103045.41
2023-05-19T10:07:01.033Z,103039.72
2023-05-19T10:09:30.955Z,103048.06
2023-05-19T10:12:00.329Z,103051.56
2023-05-19T10:14:30.269Z,103044.91
2023-05-19T10:17:00.144Z,103043.75
2023-05-19T10:19:29.934Z,103045.75
2023-05-19T10:21:58.900Z,103042.41
2023-05-19T10:24:27.792Z,103050.25
2023-05-19T10:27:04.551Z,103050.25
2023-05-19T10:29:36.014Z,103051.16
2023-05-19T10:32:09.873Z,103051.50
2023-05-19T10:35:01.096Z,103048.00
2023-05-19T10:37:38.695Z,103051.50
2023-05-19T10:40:13.762Z,103054.38
2023-05-19T10:43:01.164Z,103052.97
2023-05-19T10:45:36.107Z,103043.66
2023-05-19T10:48:04.718Z,103052.84
2023-05-19T10:50:38.381Z,103049.69
2023-05-19T10:53:15.273Z,103053.88
2023-05-19T10:55:48.747Z,103059.00
2023-05-19T10:58:38.387Z,103050.00
2023-05-19T11:01:10.548Z,103047.34
2023-05-19T11:03:47.928Z,103057.88
2023-05-19T11:06:25.926Z,103057.03
2023-05-19T11:08:55.642Z,103062.69
2023-05-19T11:11:24.021Z,103057.31
2023-05-19T11:13:56.806Z,103058.94
2023-05-19T11:16:29.844Z,103071.06
2023-05-19T11:19:01.659Z,103069.84
2023-05-19T11:21:43.928Z,103066.06
2023-05-19T11:24:12.203Z,103065.25
2023-05-19T11:26:44.324Z,103073.78
2023-05-19T11:29:14.530Z,103073.25
2023-05-19T11:31:45.047Z,103079.03
2023-05-19T11:34:13.977Z,103081.34
2023-05-19T11:36:44.163Z,103074.38
2023-05-19T11:39:13.630Z,103076.81
2023-05-19T11:41:41.883Z,103071.13
2023-05-19T11:44:13.316Z,103078.66
2023-05-19T11:46:41.282Z,103083.50
2023-05-19T11:49:10.657Z,103076.81
2023-05-19T11:51:39.705Z,103086.78
2023-05-19T11:54:08.411Z,103077.09
2023-05-19T11:56:41.008Z,103080.84
2023-05-19T11:59:09.596Z,103076.53
2023-05-19T12:01:39.418Z,103071.28
2023-05-19T12:04:10.581Z,103083.31
2023-05-19T12:06:38.998Z,103082.34
2023-05-19T12:09:07.470Z,103079.63
2023-05-19T12:11:36.093Z,103077.28
2023-05-19T12:14:04.339Z,103078.50
2023-05-19T12:16:35.867Z,103073.34
2023-05-19T12:19:07.468Z,103082.00
2023-05-19T12:21:35.850Z,103081.34
2023-05-19T12:24:06.235Z,103084.84
2023-05-19T12:26:34.977Z,103073.88
2023-05-19T12:29:03.449Z,103071.41
2023-05-19T12:31:31.740Z,103069.25
2023-05-19T12:34:01.744Z,103062.25
2023-05-19T12:36:33.637Z,103074.97
2023-05-19T12:39:01.928Z,103071.66
2023-05-19T12:41:30.795Z,103072.16
2023-05-19T12:43:59.012Z,103068.00
2023-05-19T12:46:27.252Z,103075.53
2023-05-19T12:49:00.880Z,103075.84
2023-05-19T12:51:30.503Z,103076.84
2023-05-19T12:53:59.068Z,103074.50
2023-05-19T12:56:28.552Z,103067.19
2023-05-19T12:58:56.751Z,103081.72
2023-05-19T13:01:25.493Z,103066.88
2023-05-19T13:03:54.074Z,103080.59
2023-05-19T13:06:22.619Z,103076.91
2023-05-19T13:08:57.149Z,103070.22
2023-05-19T13:11:25.349Z,103067.41
2023-05-19T13:13:53.628Z,103081.59
2023-05-19T13:16:21.962Z,103076.56
2023-05-19T13:18:50.220Z,103073.59
2023-05-19T13:21:18.645Z,103077.91
2023-05-19T13:23:46.973Z,103076.91
2023-05-19T13:26:16.697Z,103070.41
2023-05-19T13:28:45.050Z,103064.25
2023-05-19T13:31:14.547Z,103061.28
2023-05-19T13:33:42.746Z,103064.31
2023-05-19T13:36:10.997Z,103058.28
2023-05-19T13:38:40.421Z,103055.97
2023-05-19T13:41:10.859Z,103051.63
2023-05-19T13:43:40.637Z,103057.97
2023-05-19T13:46:09.065Z,103059.63
2023-05-19T13:48:37.609Z,103060.44
2023-05-19T13:51:06.504Z,103056.94
2023-05-19T13:53:34.764Z,103054.94
2023-05-19T13:56:03.619Z,103068.28
2023-05-19T13:58:32.181Z,103059.63
2023-05-19T14:01:02.047Z,103056.56
2023-05-19T14:03:30.753Z,103057.56
2023-05-19T14:05:59.064Z,103057.72
2023-05-19T14:08:27.248Z,103052.88
2023-05-19T14:10:57.241Z,103052.06
2023-05-19T14:13:33.005Z,103055.44
2023-05-19T14:16:05.388Z,103052.25
2023-05-19T14:18:33.690Z,103053.06
2023-05-19T14:21:01.878Z,103057.25
2023-05-19T14:23:30.457Z,103043.22
2023-05-19T14:25:58.791Z,103052.25
2023-05-19T14:28:27.093Z,103043.53
2023-05-19T14:30:55.405Z,103051.88
2023-05-19T14:33:25.092Z,103049.53
2023-05-19T14:35:53.749Z,103048.19
2023-05-19T14:38:22.004Z,103052.88
2023-05-19T14:40:50.284Z,103042.50
2023-05-19T14:43:18.520Z,103050.16
2023-05-19T14:45:46.957Z,103049.50
2023-05-19T14:48:15.328Z,103040.28
2023-05-19T14:50:45.124Z,103046.50
2023-05-19T14:53:13.823Z,103043.13
2023-05-19T14:55:42.183Z,103034.91
2023-05-19T14:58:26.840Z,103036.44
2023-05-19T15:00:58.416Z,103039.47
2023-05-19T15:03:26.677Z,103047.03
2023-05-19T15:05:56.293Z,103042.00
2023-05-19T15:08:24.675Z,103050.03
2023-05-19T15:10:52.956Z,103045.84
2023-05-19T15:13:21.678Z,103047.19
2023-05-19T15:15:49.901Z,103044.38
2023-05-19T15:18:18.913Z,103040.84
2023-05-19T15:20:47.706Z,103036.84
2023-05-19T15:23:17.432Z,103040.34
2023-05-19T15:25:46.364Z,103036.53
2023-05-19T15:28:16.889Z,103029.53
2023-05-19T15:30:45.794Z,103027.88
2023-05-19T15:33:14.128Z,103026.91
2023-05-19T15:35:42.447Z,103033.41
2023-05-19T15:38:11.075Z,103024.88
2023-05-19T15:40:42.964Z,103019.38
2023-05-19T15:43:11.140Z,103012.69
2023-05-19T15:45:39.417Z,103006.53
2023-05-19T15:48:08.113Z,103003.84
2023-05-19T15:50:37.273Z,103004.72
2023-05-19T15:53:07.778Z,103007.72
2023-05-19T15:55:36.061Z,103011.53
2023-05-19T15:58:05.743Z,103005.88
2023-05-19T16:00:34.246Z,103006.88
2023-05-19T16:03:02.733Z,103011.56
2023-05-19T16:05:31.123Z,103013.22
2023-05-19T16:07:59.428Z,103013.66
2023-05-19T16:10:27.744Z,103005.81
2023-05-19T16:12:55.904Z,103000.97
2023-05-19T16:15:25.675Z,103009.47
2023-05-19T16:17:55.113Z,103002.81
2023-05-19T16:20:27.955Z,103000.78
2023-05-19T16:22:56.320Z,103003.44
2023-05-19T16:25:24.927Z,103001.25
2023-05-19T16:27:53.714Z,102995.41
2023-05-19T16:30:22.874Z,103007.94
2023-05-19T16:32:53.824Z,103005.28
2023-05-19T16:35:22.316Z,103012.63
2023-05-19T16:37:50.601Z,103012.78
2023-05-19T16:40:19.013Z,103007.09
2023-05-19T16:42:47.221Z,103011.78
2023-05-19T16:45:17.437Z,103007.75
2023-05-19T16:47:45.742Z,103010.59
2023-05-19T16:50:15.349Z,103009.06
2023-05-19T16:52:43.621Z,102997.03
2023-05-19T16:55:16.777Z,102998.72
2023-05-19T16:57:44.856Z,103000.53
2023-05-19T17:00:14.309Z,102993.69
2023-05-19T17:02:45.512Z,102994.50
2023-05-19T17:05:15.234Z,102992.34
2023-05-19T17:07:43.499Z,102998.50
2023-05-19T17:10:12.316Z,102995.97
2023-05-19T17:12:40.652Z,102997.66
2023-05-19T17:15:09.660Z,103000.69
2023-05-19T17:17:37.911Z,102994.34
2023-05-19T17:20:07.227Z,102986.00
2023-05-19T17:22:37.189Z,102994.97
2023-05-19T17:25:06.002Z,102987.31
2023-05-19T17:27:34.150Z,102996.06
2023-05-19T17:30:02.396Z,102993.72
2023-05-19T17:32:35.930Z,102993.56
2023-05-19T17:35:06.705Z,102992.34
2023-05-19T17:37:36.507Z,102995.00
2023-05-19T17:40:05.058Z,102992.16
2023-05-19T17:42:33.348Z,102999.44
2023-05-19T17:45:01.762Z,102997.41
2023-05-19T17:47:30.115Z,102995.91
2023-05-19T17:49:58.309Z,102995.69
2023-05-19T17:52:27.033Z,103010.53
2023-05-19T17:54:57.226Z,102998.19
2023-05-19T17:57:27.160Z,102999.91
2023-05-19T17:59:55.991Z,102996.41
2023-05-19T18:02:24.685Z,103000.75
2023-05-19T18:04:53.526Z,103011.88
2023-05-19T18:07:25.705Z,103016.19
2023-05-19T18:09:56.518Z,103013.16
2023-05-19T18:12:26.340Z,103007.78
2023-05-19T18:14:54.602Z,103014.94
2023-05-19T18:17:22.841Z,103014.41
2023-05-19T18:19:51.078Z,103007.56
2023-05-19T18:22:19.382Z,103014.19
2023-05-19T18:24:47.646Z,103015.31
2023-05-19T18:27:15.851Z,103014.19
2023-05-19T18:29:45.544Z,103019.53
2023-05-19T18:32:14.757Z,103014.84
2023-05-19T18:34:43.076Z,103011.19
2023-05-19T18:37:11.224Z,103012.19
2023-05-19T18:39:39.472Z,103017.22
2023-05-19T18:42:07.854Z,103013.25
2023-05-19T18:44:36.048Z,103007.78
2023-05-19T18:47:06.160Z,103002.28
2023-05-19T18:49:34.385Z,103001.97
2023-05-19T18:52:02.610Z,102994.63
2023-05-19T18:54:32.621Z,103000.50
2023-05-19T18:57:02.820Z,103006.13
2023-05-19T18:59:31.143Z,102998.00
2023-05-19T19:01:59.377Z,103002.50
2023-05-19T19:04:29.079Z,103003.00
2023-05-19T19:06:57.333Z,102999.84
2023-05-19T19:09:25.692Z,103006.66
2023-05-19T19:11:53.989Z,103006.66
2023-05-19T19:14:22.694Z,103003.88
2023-05-19T19:16:50.943Z,103009.03
2023-05-19T19:19:19.317Z,103007.50
2023-05-19T19:21:49.073Z,103008.19
2023-05-19T19:24:17.448Z,103009.19
2023-05-19T19:26:45.666Z,103006.66
2023-05-19T19:29:13.860Z,103012.00
2023-05-19T19:31:42.275Z,103014.66
2023-05-19T19:34:11.323Z,103012.81
2023-05-19T19:36:39.561Z,103007.50
2023-05-19T19:39:09.612Z,103024.31
2023-05-19T19:41:37.812Z,103019.31
2023-05-19T19:44:06.486Z,103021.28
2023-05-19T19:46:34.975Z,103019.78
2023-05-19T19:49:03.218Z,103023.59
2023-05-19T19:51:31.648Z,103028.38
2023-05-19T19:54:00.193Z,103027.03
2023-05-19T19:56:29.956Z,103022.84
2023-05-19T19:58:59.202Z,103018.53
2023-05-19T20:01:28.300Z,103022.47
2023-05-19T20:04:13.628Z,103023.56
2023-05-19T20:06:42.043Z,103016.34
2023-05-19T20:09:10.555Z,103017.63
2023-05-19T20:11:40.228Z,103017.78
2023-05-19T20:14:08.451Z,103020.09
2023-05-19T20:16:36.788Z,103024.88
2023-05-19T20:19:06.679Z,103019.31
2023-05-19T20:21:36.109Z,103024.09
2023-05-19T20:24:04.777Z,103014.56
2023-05-19T20:26:32.973Z,103015.72
2023-05-19T20:29:02.703Z,103019.66
2023-05-19T20:31:30.985Z,103022.63
2023-05-19T20:34:00.785Z,103025.44
2023-05-19T20:36:30.098Z,103026.72
2023-05-19T20:38:58.434Z,103030.53
2023-05-19T20:41:26.805Z,103028.84
2023-05-19T20:43:55.210Z,103030.13
2023-05-19T20:46:25.121Z,103025.69
2023-05-19T20:48:53.494Z,103031.13
2023-05-19T20:51:25.350Z,103034.50
2023-05-19T20:53:53.759Z,103038.13
2023-05-19T20:56:22.440Z,103037.44
2023-05-19T20:58:50.727Z,103036.59
2023-05-19T21:01:19.127Z,103033.78
2023-05-19T21:03:48.728Z,103040.78
2023-05-19T21:06:17.112Z,103038.81
2023-05-19T21:08:45.309Z,103036.84
2023-05-19T21:11:13.499Z,103036.00
2023-05-19T21:13:41.845Z,103043.97
2023-05-19T21:16:10.063Z,103044.13
2023-05-19T21:18:38.293Z,103045.97
2023-05-19T21:21:08.026Z,103055.06
2023-05-19T21:23:36.249Z,103056.78
2023-05-19T21:26:04.924Z,103052.19
2023-05-19T21:28:33.378Z,103044.66
2023-05-19T21:31:01.663Z,103042.00
2023-05-19T21:33:30.133Z,103047.31
2023-05-19T21:36:00.495Z,103042.97
2023-05-19T21:38:30.094Z,103045.25
2023-05-19T21:40:58.492Z,103045.25
2023-05-19T21:43:26.845Z,103034.91
2023-05-19T21:45:55.491Z,103044.81
2023-05-19T21:48:23.703Z,103045.69
2023-05-19T21:50:54.716Z,103039.38
2023-05-19T21:53:23.130Z,103042.88
2023-05-19T21:55:52.626Z,103038.84
2023-05-19T21:58:20.991Z,103037.63
2023-05-19T22:00:53.193Z,103040.28
2023-05-19T22:03:21.945Z,103042.38
2023-05-19T22:05:50.679Z,103041.72
2023-05-19T22:08:19.825Z,103042.97
2023-05-19T22:10:51.041Z,103043.41
2023-05-19T22:13:20.915Z,103037.66
2023-05-19T22:15:49.289Z,103039.63
2023-05-19T22:18:17.974Z,103044.66
2023-05-19T22:20:46.223Z,103040.44
2023-05-19T22:23:14.654Z,103036.00
2023-05-19T22:25:42.965Z,103043.25
2023-05-19T22:28:11.334Z,103046.06
2023-05-19T22:30:42.305Z,103047.47
2023-05-19T22:33:11.374Z,103044.66
2023-05-19T22:35:39.781Z,103041.16
2023-05-19T22:38:10.313Z,103039.50
2023-05-19T22:40:39.097Z,103040.75
2023-05-19T22:43:07.339Z,103051.25
2023-05-19T22:45:36.116Z,103055.44
2023-05-19T22:48:06.828Z,103050.81
2023-05-19T22:50:35.068Z,103046.31
2023-05-19T22:53:03.414Z,103040.31
2023-05-19T22:55:32.394Z,103045.63
2023-05-19T22:58:00.946Z,103042.97
2023-05-19T23:00:29.170Z,103039.63
2023-05-19T23:02:58.491Z,103049.28
2023-05-19T23:05:28.233Z,103044.94
2023-05-19T23:07:56.487Z,103042.44
2023-05-19T23:10:24.739Z,103043.97
2023-05-19T23:12:53.656Z,103049.56
2023-05-19T23:15:21.959Z,103049.72
2023-05-19T23:17:50.454Z,103055.72
2023-05-19T23:20:18.807Z,103051.41
2023-05-19T23:22:48.497Z,103055.16
2023-05-19T23:25:16.811Z,103051.69
2023-05-19T23:27:46.642Z,103047.19
2023-05-19T23:30:15.307Z,103056.44
2023-05-19T23:32:43.652Z,103049.63
2023-05-19T23:35:13.283Z,103050.44
2023-05-19T23:37:41.576Z,103045.41
2023-05-19T23:40:12.162Z,103055.75
2023-05-19T23:42:40.530Z,103049.78
2023-05-19T23:45:09.844Z,103056.88
2023-05-19T23:47:38.300Z,103055.38
2023-05-19T23:50:06.892Z,103052.72
2023-05-19T23:52:35.225Z,103049.78
2023-05-19T23:55:03.805Z,103043.75
2023-05-19T23:57:33.481Z,103045.00
